Barefoot Beach, Florida
Current Conditions -  °F | °C
As of 5:53 PM on Tuesday 21 Oct 2014 (Local Time) from KRSW Reporting Station
Clear Clear  
Wind Chill: 79°   Ceiling: Unl
Heat Index: 81°   Visibility: 10mi
Dew Point: 67°   Wind: 0mph
Humidity: 66%   Direction: NA
Pressure: 29.9"   Gusts: NA
Location:  26.3649°N, 81.8304°W
Report Text: KRSW 212153Z 00000KT 10SM CLR 26/19 A2990 RMK AO2 SLP123 T02610194
Loading
Personal Weather Stations






























Interactive Weather Map
Tropical Storm Tracking
New forecast layout! Learn more

10-Day Weather Forecast

Advertisements
Track Severe Weather on mobile